Time;durP1;ratioP1;P1;durP2;ratioP2;P2;SDS_P1;SDS_P2;PMS_P1;PMS_P2;Temp;Humidity;BMP_temperature;BMP_pressure;BME280_temperature;BME280_humidity;BME280_pressure;Samples;Min_cycle;Max_cycle;Signal;HPM_P1;HPM_P2
2023/08/03 00:02:09;;;;;;;1.27;0.80;;;16.90;99.90;;;;;;5029611;28;20656;-78
2023/08/03 00:04:35;;;;;;;1.83;0.90;;;16.70;99.90;;;;;;5026062;28;20597;-78
2023/08/03 00:07:00;;;;;;;4.15;0.70;;;16.90;99.90;;;;;;5011302;28;20201;-78
2023/08/03 00:09:26;;;;;;;1.27;0.70;;;16.90;99.90;;;;;;5011218;28;20177;-77
2023/08/03 00:11:51;;;;;;;2.53;0.82;;;16.90;99.90;;;;;;5010447;28;20708;-76
2023/08/03 00:14:17;;;;;;;4.20;0.90;;;17.00;99.90;;;;;;5011254;28;20178;-77
2023/08/03 00:16:43;;;;;;;5.60;0.98;;;16.90;99.90;;;;;;5011152;28;20541;-77
2023/08/03 00:19:09;;;;;;;5.50;0.90;;;16.90;99.90;;;;;;5011217;28;20672;-77
2023/08/03 00:21:34;;;;;;;1.67;0.90;;;16.90;99.90;;;;;;5009984;28;20214;-78
2023/08/03 00:24:00;;;;;;;4.47;0.80;;;16.80;99.90;;;;;;5010906;28;20703;-78
2023/08/03 00:26:25;;;;;;;1.48;0.90;;;16.80;99.90;;;;;;5011164;28;20174;-75
2023/08/03 00:28:51;;;;;;;3.03;0.80;;;16.90;99.90;;;;;;5009813;28;20637;-75
2023/08/03 00:31:16;;;;;;;3.13;1.00;;;16.90;99.90;;;;;;5013724;28;20162;-76
2023/08/03 00:33:42;;;;;;;2.30;0.90;;;16.90;99.90;;;;;;5023242;28;20194;-77
2023/08/03 00:36:07;;;;;;;3.13;1.05;;;16.90;99.90;;;;;;5011276;28;20223;-76
2023/08/03 00:38:33;;;;;;;4.40;0.93;;;16.90;99.90;;;;;;5010041;28;20272;-76
2023/08/03 00:40:59;;;;;;;5.10;1.00;;;16.90;99.90;;;;;;5009645;28;20214;-74
2023/08/03 00:43:24;;;;;;;4.25;1.13;;;16.90;99.90;;;;;;5010972;28;20181;-78
2023/08/03 00:45:50;;;;;;;3.13;1.00;;;16.80;99.90;;;;;;5011373;28;20193;-76
2023/08/03 00:48:17;;;;;;;5.47;1.10;;;16.90;99.90;;;;;;5030735;28;20173;-77
2023/08/03 00:50:42;;;;;;;1.95;0.90;;;16.90;99.90;;;;;;5030754;28;20556;-77
2023/08/03 00:53:08;;;;;;;3.22;1.02;;;16.90;99.90;;;;;;5030682;28;20185;-77
2023/08/03 00:55:34;;;;;;;3.20;0.93;;;16.80;99.90;;;;;;5030532;28;20166;-78
2023/08/03 00:58:00;;;;;;;3.90;0.80;;;16.80;99.90;;;;;;5030628;28;20174;-78
2023/08/03 01:00:25;;;;;;;2.17;1.10;;;16.90;99.90;;;;;;5030650;28;20209;-77
2023/08/03 01:02:51;;;;;;;5.38;1.08;;;16.90;99.90;;;;;;5030766;28;20188;-77
2023/08/03 01:05:17;;;;;;;3.67;1.20;;;16.80;99.90;;;;;;5029211;28;20178;-77
2023/08/03 01:07:42;;;;;;;3.45;1.13;;;16.80;99.90;;;;;;5030545;28;20177;-77
2023/08/03 01:10:08;;;;;;;3.35;1.25;;;16.80;99.90;;;;;;5034681;28;20177;-77
2023/08/03 01:12:34;;;;;;;1.98;0.98;;;16.70;99.90;;;;;;5034670;28;20176;-79
2023/08/03 01:15:00;;;;;;;2.90;1.27;;;16.80;99.90;;;;;;5030994;28;20264;-79
2023/08/03 01:17:25;;;;;;;4.75;0.88;;;16.70;99.90;;;;;;5029555;28;20202;-79
2023/08/03 01:19:51;;;;;;;3.75;1.30;;;16.70;99.90;;;;;;5030775;28;20217;-80
2023/08/03 01:22:17;;;;;;;1.88;0.82;;;16.70;99.90;;;;;;5032128;28;20181;-79
2023/08/03 01:24:43;;;;;;;3.47;1.27;;;16.70;99.90;;;;;;5034087;28;20204;-79
2023/08/03 01:27:09;;;;;;;3.67;0.98;;;16.70;99.90;;;;;;5034415;28;20701;-78
2023/08/03 01:29:34;;;;;;;6.70;1.10;;;16.70;99.90;;;;;;5043671;28;20196;-78
2023/08/03 01:32:00;;;;;;;3.22;1.08;;;16.70;99.90;;;;;;5046998;28;20990;-79
2023/08/03 01:34:27;;;;;;;3.78;1.00;;;16.60;99.90;;;;;;5034041;28;20708;-80
2023/08/03 01:36:53;;;;;;;3.95;1.10;;;16.60;99.90;;;;;;5051405;28;20288;-79
2023/08/03 01:39:20;;;;;;;2.60;1.00;;;16.50;99.90;;;;;;5034953;28;20181;-79
2023/08/03 01:41:46;;;;;;;1.77;1.10;;;16.50;99.90;;;;;;5050435;28;20243;-80
2023/08/03 01:44:27;;;;;;;4.72;1.05;;;16.50;99.90;;;;;;5051908;28;20174;-80
2023/08/03 01:46:54;;;;;;;5.80;1.00;;;16.50;99.90;;;;;;5023224;28;20671;-79
2023/08/03 01:49:22;;;;;;;5.65;1.25;;;16.60;99.90;;;;;;5044250;28;20174;-78
2023/08/03 01:51:48;;;;;;;3.15;1.00;;;16.50;99.90;;;;;;5050512;28;20299;-78
2023/08/03 01:54:14;;;;;;;4.18;1.45;;;16.50;99.90;;;;;;5039258;28;20190;-79
2023/08/03 01:56:40;;;;;;;6.20;1.10;;;16.60;99.90;;;;;;5033888;28;20697;-78
2023/08/03 01:59:05;;;;;;;3.35;0.90;;;16.50;99.90;;;;;;5033728;28;20169;-79
2023/08/03 02:01:31;;;;;;;3.88;1.05;;;16.60;99.90;;;;;;5033350;28;20692;-78
2023/08/03 02:03:57;;;;;;;2.25;1.10;;;16.60;99.90;;;;;;5033551;28;20170;-78
2023/08/03 02:06:22;;;;;;;2.30;1.02;;;16.60;99.90;;;;;;5031941;28;20652;-78
2023/08/03 02:08:48;;;;;;;5.97;1.30;;;16.60;99.90;;;;;;5033448;28;20601;-78
2023/08/03 02:11:14;;;;;;;2.28;1.00;;;16.60;99.90;;;;;;5033145;28;20246;-78
2023/08/03 02:13:39;;;;;;;4.40;1.02;;;16.60;99.90;;;;;;5033272;28;20201;-77
2023/08/03 02:16:10;;;;;;;4.10;0.90;;;16.60;99.90;;;;;;5033144;28;20632;-76
2023/08/03 02:18:36;;;;;;;7.63;1.40;;;16.60;99.90;;;;;;5032950;28;20228;-77
2023/08/03 02:21:03;;;;;;;4.68;1.00;;;16.60;99.90;;;;;;5031696;28;20244;-75
2023/08/03 02:23:28;;;;;;;6.25;1.30;;;16.60;99.90;;;;;;5033111;28;20188;-77
2023/08/03 02:25:54;;;;;;;1.48;0.88;;;16.60;99.90;;;;;;5040310;28;20158;-77
2023/08/03 02:28:19;;;;;;;4.97;0.82;;;16.60;99.90;;;;;;5040282;28;20173;-77
2023/08/03 02:30:45;;;;;;;6.57;1.02;;;16.60;99.90;;;;;;5033246;28;20170;-77
2023/08/03 02:33:11;;;;;;;2.17;1.08;;;16.60;99.90;;;;;;5032362;28;20167;-78
2023/08/03 02:35:39;;;;;;;2.72;1.02;;;16.60;99.90;;;;;;5033021;28;20181;-78
2023/08/03 02:38:05;;;;;;;4.53;1.13;;;16.60;99.90;;;;;;5034422;28;20331;-78
2023/08/03 02:40:30;;;;;;;3.05;1.00;;;16.80;99.90;;;;;;5052418;28;20287;-78
2023/08/03 02:42:56;;;;;;;4.00;0.95;;;16.60;99.90;;;;;;5052481;28;20579;-80
2023/08/03 02:45:22;;;;;;;3.25;0.90;;;16.70;99.90;;;;;;5044260;28;20590;-79
2023/08/03 02:47:47;;;;;;;2.33;1.13;;;16.60;99.90;;;;;;5038262;28;20649;-78
2023/08/03 02:50:13;;;;;;;3.15;1.00;;;16.60;99.90;;;;;;5050558;28;20201;-79
2023/08/03 02:52:39;;;;;;;5.55;1.20;;;16.60;99.90;;;;;;5035776;28;20217;-78
2023/08/03 02:55:05;;;;;;;3.35;1.00;;;16.30;99.90;;;;;;5045791;28;20177;-77
2023/08/03 02:57:30;;;;;;;5.18;1.10;;;16.60;99.90;;;;;;5033309;28;20265;-77
2023/08/03 02:59:56;;;;;;;5.57;1.08;;;16.60;99.90;;;;;;5031781;28;20669;-77
2023/08/03 03:02:22;;;;;;;6.30;1.38;;;16.50;99.90;;;;;;5044939;28;20657;-78
2023/08/03 03:04:47;;;;;;;3.63;1.15;;;16.50;99.90;;;;;;5062619;28;20241;-78
2023/08/03 03:07:13;;;;;;;3.60;1.30;;;16.50;99.90;;;;;;5032478;28;20187;-78
2023/08/03 03:09:38;;;;;;;8.23;1.13;;;16.40;99.90;;;;;;5032439;28;20539;-79
2023/08/03 03:12:04;;;;;;;3.83;0.98;;;16.40;99.90;;;;;;5032361;28;20231;-79
2023/08/03 03:14:30;;;;;;;2.47;1.30;;;16.40;99.90;;;;;;5041090;28;20596;-76
2023/08/03 03:16:55;;;;;;;6.45;1.25;;;16.20;99.90;;;;;;5051936;28;20185;-78
2023/08/03 03:19:21;;;;;;;2.20;0.98;;;16.30;99.90;;;;;;5051598;28;20181;-79
2023/08/03 03:21:46;;;;;;;5.15;1.20;;;16.40;99.90;;;;;;5049162;28;20704;-79
2023/08/03 03:24:12;;;;;;;2.88;1.10;;;16.30;99.90;;;;;;5035503;28;20537;-80
2023/08/03 03:26:37;;;;;;;3.20;1.00;;;16.30;99.90;;;;;;5042526;28;20173;-79
2023/08/03 03:29:03;;;;;;;5.32;1.20;;;16.30;99.90;;;;;;5050168;28;20546;-79
2023/08/03 03:31:29;;;;;;;3.17;1.13;;;16.30;99.90;;;;;;5033709;28;20177;-79
2023/08/03 03:33:54;;;;;;;6.35;1.35;;;16.30;99.90;;;;;;5040268;28;20596;-79
2023/08/03 03:36:20;;;;;;;6.97;1.45;;;16.30;99.90;;;;;;5044958;28;20177;-77
2023/08/03 03:38:46;;;;;;;4.18;1.00;;;16.30;99.90;;;;;;5036672;28;20178;-78
2023/08/03 03:41:12;;;;;;;2.88;0.90;;;16.30;99.90;;;;;;5030173;28;20244;-77
2023/08/03 03:43:38;;;;;;;4.13;1.20;;;16.30;99.90;;;;;;5046235;28;20174;-78
2023/08/03 03:46:03;;;;;;;2.63;1.20;;;16.30;99.90;;;;;;5034974;28;20532;-77
2023/08/03 03:48:29;;;;;;;5.30;1.10;;;16.30;99.90;;;;;;5030118;28;20212;-78
2023/08/03 03:50:54;;;;;;;2.78;0.80;;;16.30;99.90;;;;;;5031505;28;20228;-77
2023/08/03 03:53:20;;;;;;;12.00;1.30;;;16.40;99.90;;;;;;5031512;28;20177;-77
2023/08/03 03:55:45;;;;;;;4.60;1.33;;;16.40;99.90;;;;;;5031425;28;20632;-77
2023/08/03 03:58:11;;;;;;;5.43;1.10;;;16.40;99.90;;;;;;5031208;28;20220;-78
2023/08/03 04:00:40;;;;;;;6.97;1.27;;;16.30;99.90;;;;;;5029850;28;20339;-78
2023/08/03 04:03:09;;;;;;;3.72;1.05;;;16.30;99.90;;;;;;5031047;28;20252;-77
2023/08/03 04:05:36;;;;;;;3.97;0.95;;;16.50;99.90;;;;;;5031170;28;20256;-77
2023/08/03 04:08:02;;;;;;;5.38;1.17;;;16.30;99.90;;;;;;5030995;28;20253;-78
2023/08/03 04:10:28;;;;;;;3.50;1.00;;;16.30;99.90;;;;;;5030947;28;20166;-77
2023/08/03 04:12:54;;;;;;;7.50;1.25;;;16.40;99.90;;;;;;5031105;28;20166;-78
2023/08/03 04:15:20;;;;;;;5.03;0.93;;;16.10;99.90;;;;;;5030830;28;20173;-77
2023/08/03 04:17:46;;;;;;;5.07;1.05;;;16.30;99.90;;;;;;5030875;28;20265;-77
2023/08/03 04:20:12;;;;;;;2.70;1.13;;;16.30;99.90;;;;;;5041056;28;20223;-77
2023/08/03 04:22:38;;;;;;;6.03;1.40;;;16.30;99.90;;;;;;5032835;28;20204;-77
2023/08/03 04:25:04;;;;;;;2.03;0.80;;;16.30;99.90;;;;;;5030876;28;20205;-77
2023/08/03 04:27:30;;;;;;;3.45;1.05;;;16.30;99.90;;;;;;5029793;28;20256;-78
2023/08/03 04:29:55;;;;;;;2.08;0.95;;;16.30;99.90;;;;;;5031028;28;20641;-77
2023/08/03 04:32:21;;;;;;;2.15;1.00;;;16.30;99.90;;;;;;5030953;28;20513;-76
2023/08/03 04:34:46;;;;;;;4.97;0.90;;;16.30;99.90;;;;;;5030644;28;20613;-77
2023/08/03 04:37:12;;;;;;;3.55;1.13;;;16.40;99.90;;;;;;5030611;28;20228;-78
2023/08/03 04:39:38;;;;;;;2.75;1.10;;;16.40;99.90;;;;;;5029851;28;20667;-76
2023/08/03 04:42:03;;;;;;;3.97;1.15;;;16.30;99.90;;;;;;5010754;28;20736;-77
2023/08/03 04:44:29;;;;;;;3.38;1.30;;;16.30;99.90;;;;;;5010824;28;20175;-76
2023/08/03 04:46:55;;;;;;;6.03;1.10;;;16.10;99.90;;;;;;5022091;28;20212;-76
2023/08/03 04:49:22;;;;;;;2.83;0.90;;;16.30;99.90;;;;;;5046169;28;20204;-76
2023/08/03 04:51:49;;;;;;;2.60;1.15;;;16.10;99.90;;;;;;5049104;28;20640;-77
2023/08/03 04:54:15;;;;;;;5.18;1.20;;;16.30;99.90;;;;;;5046593;28;20181;-77
2023/08/03 04:56:40;;;;;;;2.47;1.05;;;16.30;99.90;;;;;;5049221;28;20666;-77
2023/08/03 04:59:06;;;;;;;2.65;1.00;;;16.40;99.90;;;;;;5052334;28;20180;-78
2023/08/03 05:01:32;;;;;;;3.63;0.77;;;16.30;99.90;;;;;;5038024;28;20205;-77
2023/08/03 05:04:00;;;;;;;3.25;1.10;;;16.30;99.90;;;;;;5036245;28;20270;-79
2023/08/03 05:06:26;;;;;;;3.58;1.10;;;16.50;99.90;;;;;;5034872;28;20177;-77
2023/08/03 05:08:51;;;;;;;4.13;1.20;;;16.40;99.90;;;;;;5034672;28;20552;-79
2023/08/03 05:11:17;;;;;;;4.72;0.93;;;16.50;99.90;;;;;;5034350;28;20185;-77
2023/08/03 05:13:42;;;;;;;3.22;0.90;;;16.40;99.90;;;;;;5034177;28;20525;-78
2023/08/03 05:16:08;;;;;;;3.15;1.30;;;16.40;99.90;;;;;;5033991;28;20716;-78
2023/08/03 05:18:34;;;;;;;8.82;0.95;;;16.40;99.90;;;;;;5034166;28;20170;-78
2023/08/03 05:20:59;;;;;;;3.47;1.02;;;16.40;99.90;;;;;;5033941;28;20707;-78
2023/08/03 05:23:25;;;;;;;6.68;1.10;;;16.40;99.90;;;;;;5033942;28;20637;-76
2023/08/03 05:25:55;;;;;;;5.20;1.10;;;16.50;99.90;;;;;;5032386;28;20178;-77
2023/08/03 05:28:21;;;;;;;2.53;1.08;;;16.30;99.90;;;;;;5033981;28;20170;-77
2023/08/03 05:30:46;;;;;;;3.45;1.35;;;16.50;99.90;;;;;;5034080;28;20189;-77
2023/08/03 05:33:12;;;;;;;2.70;1.00;;;16.50;99.90;;;;;;5034024;28;20170;-77
2023/08/03 05:35:38;;;;;;;7.55;1.40;;;16.50;99.90;;;;;;5039386;28;20185;-77
2023/08/03 05:38:03;;;;;;;4.60;1.13;;;16.60;99.90;;;;;;5044387;28;20716;-77
2023/08/03 05:40:29;;;;;;;6.53;1.10;;;16.50;99.90;;;;;;5033803;28;20209;-76
2023/08/03 05:42:55;;;;;;;5.63;1.63;;;16.50;99.90;;;;;;5034051;28;20166;-76
2023/08/03 05:45:39;;;;;;;3.25;0.90;;;16.50;99.90;;;;;;5033873;28;20251;-78
2023/08/03 05:48:14;;;;;;;3.65;1.02;;;16.50;99.90;;;;;;5034143;28;20182;-77
2023/08/03 05:50:42;;;;;;;9.43;1.42;;;16.50;99.90;;;;;;5034182;28;20256;-77
2023/08/03 05:53:12;;;;;;;6.75;1.67;;;16.50;99.90;;;;;;5034126;28;20178;-77
2023/08/03 05:55:38;;;;;;;4.40;1.30;;;16.50;99.90;;;;;;5034023;28;20260;-77
2023/08/03 05:58:05;;;;;;;4.30;1.25;;;16.50;99.90;;;;;;5033750;28;20268;-77
2023/08/03 06:00:31;;;;;;;5.15;1.40;;;16.50;99.90;;;;;;5032074;28;20304;-77
2023/08/03 06:02:57;;;;;;;3.95;1.30;;;16.40;99.90;;;;;;5032093;28;20205;-77
2023/08/03 06:05:49;;;;;;;3.42;1.00;;;16.50;99.90;;;;;;5033437;28;20166;-78
2023/08/03 06:08:16;;;;;;;4.57;1.15;;;16.50;99.90;;;;;;5033148;28;20186;-77
2023/08/03 06:10:44;;;;;;;4.05;1.20;;;16.50;99.90;;;;;;5033296;28;20225;-78
2023/08/03 06:13:12;;;;;;;3.78;0.90;;;16.50;99.90;;;;;;5033574;28;20166;-77
2023/08/03 06:15:39;;;;;;;4.63;1.02;;;16.50;99.90;;;;;;5043655;28;20177;-77
2023/08/03 06:18:08;;;;;;;3.03;1.20;;;16.50;99.90;;;;;;5033397;28;20170;-76
2023/08/03 06:20:34;;;;;;;4.18;1.20;;;16.50;99.90;;;;;;5033367;28;20230;-77
2023/08/03 06:23:00;;;;;;;5.03;0.95;;;16.50;99.90;;;;;;5033386;28;20292;-76
2023/08/03 06:25:27;;;;;;;2.63;1.17;;;16.50;99.90;;;;;;5033433;28;20618;-81
2023/08/03 06:27:53;;;;;;;6.25;1.00;;;16.50;99.90;;;;;;5036655;28;20169;-76
2023/08/03 06:30:18;;;;;;;2.05;1.00;;;16.60;99.90;;;;;;5040458;28;20269;-77
2023/08/03 06:32:44;;;;;;;6.03;1.10;;;16.60;99.90;;;;;;5052358;28;20182;-77
2023/08/03 06:35:39;;;;;;;3.60;0.90;;;16.60;99.90;;;;;;5049857;28;20174;-78
2023/08/03 06:38:07;;;;;;;7.75;1.10;;;16.70;99.90;;;;;;5050384;28;20707;-75
2023/08/03 06:40:33;;;;;;;6.68;1.20;;;16.70;99.90;;;;;;5052662;28;20274;-76
2023/08/03 06:43:02;;;;;;;3.60;0.85;;;13.00;99.90;;;;;;5048232;28;20177;-76
2023/08/03 06:45:32;;;;;;;4.65;1.00;;;16.70;99.90;;;;;;5032364;28;20228;-77
2023/08/03 06:47:59;;;;;;;3.10;0.93;;;16.70;99.90;;;;;;5032932;28;20232;-76
2023/08/03 06:50:26;;;;;;;3.45;1.30;;;16.70;99.90;;;;;;5032767;28;20257;-77
2023/08/03 06:52:52;;;;;;;4.63;1.23;;;16.70;99.90;;;;;;5049225;28;20217;-76
2023/08/03 06:55:18;;;;;;;3.25;1.00;;;16.80;99.90;;;;;;5032904;28;20166;-77
2023/08/03 06:57:44;;;;;;;4.90;1.20;;;;;;;;;;5032867;28;20699;-80
2023/08/03 07:00:11;;;;;;;2.60;0.98;;;16.80;99.90;;;;;;5032733;28;20630;-77
2023/08/03 07:02:36;;;;;;;6.75;1.10;;;16.80;99.90;;;;;;5032737;28;20264;-78
2023/08/03 07:05:03;;;;;;;3.78;1.30;;;16.80;99.90;;;;;;5032115;28;20174;-78
2023/08/03 07:07:28;;;;;;;4.80;1.45;;;16.80;99.90;;;;;;5031862;28;20166;-78
2023/08/03 07:09:54;;;;;;;4.35;1.50;;;16.90;99.90;;;;;;5031794;28;20166;-78
2023/08/03 07:12:20;;;;;;;8.15;1.45;;;16.90;99.90;;;;;;5031878;28;20170;-75
2023/08/03 07:14:46;;;;;;;4.18;1.20;;;17.00;99.90;;;;;;5031618;28;20521;-76
2023/08/03 07:17:12;;;;;;;5.10;1.35;;;15.20;99.90;;;;;;5030884;28;20637;-77
2023/08/03 07:19:37;;;;;;;3.85;1.25;;;17.10;99.90;;;;;;5051449;28;20253;-76
2023/08/03 07:22:04;;;;;;;8.90;1.40;;;17.10;99.90;;;;;;5051744;28;20213;-77
2023/08/03 07:24:33;;;;;;;4.78;1.20;;;17.10;99.90;;;;;;5050073;28;20180;-77
2023/08/03 07:27:02;;;;;;;3.55;1.30;;;17.10;99.90;;;;;;5051875;28;20169;-78
2023/08/03 07:29:29;;;;;;;4.57;1.48;;;17.10;99.90;;;;;;5046811;28;20173;-77
2023/08/03 07:31:55;;;;;;;8.18;1.73;;;17.00;99.90;;;;;;5031351;28;20182;-76
2023/08/03 07:34:21;;;;;;;2.65;1.20;;;17.10;99.90;;;;;;5031653;28;20174;-77
2023/08/03 07:36:47;;;;;;;1.95;1.23;;;17.10;99.90;;;;;;5031753;28;20256;-75
2023/08/03 07:39:13;;;;;;;5.13;1.63;;;17.10;99.90;;;;;;5031620;28;20597;-76
2023/08/03 07:41:38;;;;;;;5.50;1.40;;;17.20;99.90;;;;;;5031517;28;20217;-76
2023/08/03 07:44:04;;;;;;;4.45;1.00;;;17.30;99.90;;;;;;5031558;28;20192;-76
2023/08/03 07:46:30;;;;;;;4.63;1.40;;;17.20;99.90;;;;;;5031695;28;20224;-79
2023/08/03 07:48:58;;;;;;;5.95;1.58;;;17.30;99.90;;;;;;5031290;28;20174;-75
2023/08/03 07:51:24;;;;;;;3.80;1.35;;;17.40;99.90;;;;;;5031632;28;20174;-73
2023/08/03 07:53:50;;;;;;;2.78;1.30;;;17.50;99.90;;;;;;5034626;28;20646;-73
2023/08/03 07:56:16;;;;;;;10.35;1.30;;;17.60;99.90;;;;;;5030613;28;20676;-75
2023/08/03 07:58:42;;;;;;;3.35;1.27;;;17.70;99.90;;;;;;5031354;28;20181;-73
2023/08/03 08:01:08;;;;;;;4.05;1.08;;;17.80;99.90;;;;;;5030443;28;20240;-74
2023/08/03 08:03:38;;;;;;;5.93;1.20;;;17.90;99.90;;;;;;5030044;28;20182;-75
2023/08/03 08:06:08;;;;;;;10.18;1.35;;;18.10;99.90;;;;;;5045101;28;20275;-80
2023/08/03 08:08:33;;;;;;;8.70;1.50;;;18.20;99.90;;;;;;5038379;28;20196;-76
2023/08/03 08:10:59;;;;;;;2.65;1.30;;;18.20;99.90;;;;;;5030518;28;20272;-78
2023/08/03 08:13:25;;;;;;;8.35;1.45;;;18.30;99.90;;;;;;5029129;28;20178;-76
2023/08/03 08:15:50;;;;;;;4.55;1.20;;;18.40;99.90;;;;;;5031888;28;20193;-76
2023/08/03 08:18:16;;;;;;;5.25;1.20;;;18.50;99.90;;;;;;5030793;28;20229;-74
2023/08/03 08:20:53;;;;;;;4.78;1.58;;;18.20;99.90;;;;;;5029407;28;20214;-75
2023/08/03 08:23:19;;;;;;;4.78;1.40;;;18.60;99.90;;;;;;5037457;28;20169;-75
2023/08/03 08:25:44;;;;;;;6.95;1.35;;;18.80;99.90;;;;;;5032241;28;20181;-75
2023/08/03 08:28:10;;;;;;;6.18;1.10;;;18.80;99.90;;;;;;5048252;28;20639;-75
2023/08/03 08:30:35;;;;;;;2.83;1.08;;;18.90;99.90;;;;;;5050641;28;20212;-75
2023/08/03 08:33:01;;;;;;;3.80;1.08;;;18.80;99.90;;;;;;5053085;28;20180;-75
2023/08/03 08:35:26;;;;;;;2.40;1.00;;;18.90;99.90;;;;;;5054813;28;20173;-74
2023/08/03 08:37:52;;;;;;;3.38;1.13;;;18.70;99.90;;;;;;5052874;28;20224;-75
2023/08/03 08:40:18;;;;;;;2.97;0.90;;;18.70;99.90;;;;;;5052283;28;20205;-75
2023/08/03 08:42:50;;;;;;;4.53;1.00;;;19.20;99.90;;;;;;5019208;28;20181;-75
2023/08/03 08:45:16;;;;;;;2.55;0.95;;;19.00;99.90;;;;;;5015802;28;20170;-75
2023/08/03 08:47:42;;;;;;;4.80;0.95;;;19.20;99.90;;;;;;5018959;28;20192;-75
2023/08/03 08:50:08;;;;;;;3.30;0.95;;;19.20;99.90;;;;;;5013155;28;20643;-75
2023/08/03 08:52:33;;;;;;;4.38;1.30;;;19.30;99.90;;;;;;5013979;28;20665;-75
2023/08/03 08:55:30;;;;;;;2.72;1.08;;;19.40;99.90;;;;;;5014432;28;20186;-76
2023/08/03 08:57:57;;;;;;;6.10;1.00;;;19.60;99.90;;;;;;5015916;28;20273;-76
2023/08/03 09:00:24;;;;;;;2.03;1.13;;;20.40;99.90;;;;;;5013478;28;20202;-76
2023/08/03 09:03:00;;;;;;;3.85;1.05;;;19.40;99.90;;;;;;5014640;28;20170;-76
2023/08/03 09:05:26;;;;;;;1.98;0.90;;;19.50;99.90;;;;;;5014408;28;20182;-76
2023/08/03 09:07:59;;;;;;;5.75;1.20;;;19.50;99.90;;;;;;5014310;28;20163;-76
2023/08/03 09:10:25;;;;;;;5.75;0.90;;;19.70;99.90;;;;;;5014469;28;20665;-76
2023/08/03 09:12:52;;;;;;;3.30;1.15;;;20.00;99.90;;;;;;5013241;28;20170;-76
2023/08/03 09:15:17;;;;;;;3.80;1.00;;;20.50;99.90;;;;;;5014376;28;20204;-76
2023/08/03 09:17:46;;;;;;;4.03;1.02;;;20.70;99.90;;;;;;5014278;28;20541;-76
2023/08/03 09:20:26;;;;;;;2.78;1.02;;;20.90;99.90;;;;;;5014251;28;20289;-76
2023/08/03 09:22:52;;;;;;;3.85;0.90;;;21.80;99.90;;;;;;5015489;28;20189;-76
2023/08/03 09:25:17;;;;;;;3.38;1.10;;;22.30;99.90;;;;;;5020330;28;20171;-76
2023/08/03 09:27:51;;;;;;;6.40;1.55;;;22.50;99.90;;;;;;5014530;28;20514;-76
2023/08/03 09:30:18;;;;;;;4.13;1.00;;;22.50;99.90;;;;;;5014240;28;20174;-76
2023/08/03 09:32:44;;;;;;;4.50;1.20;;;22.60;99.90;;;;;;5014008;28;20194;-76
2023/08/03 09:35:23;;;;;;;4.63;1.00;;;22.70;60.60;;;;;;5014174;28;20171;-76
2023/08/03 09:37:51;;;;;;;4.28;1.17;;;22.90;1.00;;;;;;5014038;28;20229;-76
2023/08/03 09:40:19;;;;;;;6.63;1.35;;;23.00;1.00;;;;;;5012703;28;20281;-76
2023/08/03 09:42:47;;;;;;;3.15;1.10;;;22.90;99.90;;;;;;5013463;28;20252;-76
2023/08/03 09:45:13;;;;;;;4.97;1.00;;;23.00;99.90;;;;;;5013820;28;20173;-77
2023/08/03 09:47:40;;;;;;;4.70;1.38;;;22.90;99.90;;;;;;5013857;28;20194;-76
2023/08/03 09:50:07;;;;;;;5.78;1.23;;;23.10;99.90;;;;;;5013814;28;20712;-76
2023/08/03 09:52:40;;;;;;;3.00;1.27;;;23.10;99.90;;;;;;5028840;28;20184;-76
2023/08/03 09:55:10;;;;;;;3.83;1.10;;;23.50;1.00;;;;;;5013673;28;20225;-76
2023/08/03 09:57:42;;;;;;;4.00;1.13;;;23.00;1.00;;;;;;5013399;28;20712;-77
2023/08/03 10:00:08;;;;;;;3.10;1.15;;;23.20;99.90;;;;;;5013542;28;20198;-77
2023/08/03 10:03:12;;;;;;;3.28;0.80;;;23.20;99.90;;;;;;5017166;28;20187;-76
2023/08/03 10:05:50;;;;;;;2.85;0.95;;;23.40;1.00;;;;;;5013681;28;20178;-77
2023/08/03 10:08:40;;;;;;;5.15;1.27;;;23.80;1.00;;;;;;5013456;28;20193;-79
2023/08/03 10:11:10;;;;;;;7.05;1.30;;;23.40;1.00;;;;;;5013474;28;20183;-77
2023/08/03 10:13:50;;;;;;;2.58;1.00;;;23.20;80.40;;;;;;5013533;28;20210;-76
2023/08/03 10:16:17;;;;;;;5.25;1.20;;;23.50;1.00;;;;;;5013214;28;20170;-77
2023/08/03 10:18:43;;;;;;;2.90;0.90;;;23.90;1.00;;;;;;5045348;28;20257;-76
2023/08/03 10:21:10;;;;;;;4.50;1.20;;;23.50;1.00;;;;;;5013485;28;20215;-78
2023/08/03 10:23:38;;;;;;;3.45;1.15;;;23.50;99.90;;;;;;5013683;28;20179;-78
2023/08/03 10:26:06;;;;;;;3.17;0.90;;;23.90;99.90;;;;;;5013142;28;20186;-78
2023/08/03 10:28:40;;;;;;;5.20;1.02;;;23.90;79.90;;;;;;5013185;28;20170;-78
2023/08/03 10:31:11;;;;;;;4.18;1.20;;;24.50;1.00;;;;;;5013066;28;20648;-78
2023/08/03 10:33:46;;;;;;;2.97;1.02;;;24.80;1.00;;;;;;5013220;28;20182;-76
2023/08/03 10:36:38;;;;;;;2.85;0.90;;;25.00;99.90;;;;;;5027986;28;20180;-76
2023/08/03 10:39:13;;;;;;;3.03;1.00;;;25.30;99.90;;;;;;5018285;28;20265;-77
2023/08/03 10:41:46;;;;;;;2.67;1.33;;;25.70;99.90;;;;;;5018744;28;20296;-78
2023/08/03 10:44:13;;;;;;;2.28;1.00;;;25.50;1.00;;;;;;5012867;28;20598;-77
2023/08/03 10:46:43;;;;;;;3.92;1.15;;;25.70;1.00;;;;;;5012973;28;20194;-76
2023/08/03 10:49:22;;;;;;;2.83;1.20;;;25.50;1.00;;;;;;5011431;28;20205;-75
2023/08/03 10:51:51;;;;;;;5.47;0.85;;;25.40;1.00;;;;;;5027972;28;20174;-76
2023/08/03 10:54:29;;;;;;;4.85;1.20;;;24.90;1.00;;;;;;5012043;28;20178;-76
2023/08/03 10:57:04;;;;;;;5.03;1.20;;;24.50;1.00;;;;;;5012530;28;20536;-77
2023/08/03 10:59:35;;;;;;;6.10;1.20;;;24.40;99.90;;;;;;5012595;28;20241;-77
2023/08/03 11:02:14;;;;;;;3.92;1.10;;;24.10;99.90;;;;;;5027534;28;20631;-77
2023/08/03 11:04:41;;;;;;;3.05;1.00;;;23.90;99.90;;;;;;5012722;28;20178;-76
2023/08/03 11:07:09;;;;;;;5.57;1.30;;;23.80;99.90;;;;;;5012519;28;20209;-77
2023/08/03 11:09:35;;;;;;;3.97;1.00;;;23.60;1.00;;;;;;5027555;28;20202;-77
2023/08/03 11:12:03;;;;;;;4.18;1.23;;;23.30;1.00;;;;;;5012264;28;20641;-77
2023/08/03 11:14:29;;;;;;;2.90;0.90;;;23.00;99.90;;;;;;5012190;28;20167;-76
2023/08/03 11:16:55;;;;;;;3.42;1.08;;;22.80;1.00;;;;;;5015921;28;20194;-76
2023/08/03 11:19:24;;;;;;;3.13;1.30;;;22.80;25.50;;;;;;5036936;28;20260;-76
2023/08/03 11:21:49;;;;;;;7.95;1.50;;;22.80;1.00;;;;;;5012215;28;20305;-76
2023/08/03 11:24:15;;;;;;;2.85;1.10;;;22.80;63.10;;;;;;5035430;28;20212;-77
2023/08/03 11:26:42;;;;;;;3.40;1.30;;;22.80;99.90;;;;;;5045022;28;20593;-76
2023/08/03 11:29:08;;;;;;;3.22;1.10;;;22.70;1.00;;;;;;5034153;28;20201;-76
2023/08/03 11:31:34;;;;;;;8.23;1.23;;;22.60;1.00;;;;;;5032081;28;20186;-77
2023/08/03 11:33:59;;;;;;;6.22;1.23;;;22.50;99.90;;;;;;5031841;28;20547;-78
2023/08/03 11:36:25;;;;;;;5.75;1.20;;;22.30;1.00;;;;;;5031424;28;20628;-77
2023/08/03 11:38:52;;;;;;;5.68;1.45;;;22.30;99.90;;;;;;5031618;28;20189;-77
2023/08/03 11:41:24;;;;;;;4.93;1.27;;;22.10;1.00;;;;;;5030192;28;20284;-77
2023/08/03 11:43:51;;;;;;;5.30;1.65;;;21.80;99.90;;;;;;5031172;28;20652;-76
2023/08/03 11:46:25;;;;;;;4.07;1.38;;;21.70;99.90;;;;;;5031808;28;20230;-78
2023/08/03 11:48:51;;;;;;;4.70;1.02;;;21.60;1.00;;;;;;5031501;28;20707;-78
2023/08/03 11:51:19;;;;;;;7.57;1.30;;;21.40;1.00;;;;;;5030624;28;20178;-78
2023/08/03 11:53:45;;;;;;;7.25;1.50;;;21.60;1.00;;;;;;5042451;28;20723;-75
2023/08/03 11:56:14;;;;;;;3.55;1.20;;;21.70;99.90;;;;;;5044365;28;20216;-76
2023/08/03 11:58:41;;;;;;;3.60;1.30;;;21.70;1.00;;;;;;5050749;28;20212;-76
2023/08/03 12:01:06;;;;;;;5.07;1.15;;;21.60;99.90;;;;;;5031896;28;20214;-77
2023/08/03 12:03:37;;;;;;;4.78;1.40;;;21.60;99.90;;;;;;5029835;28;20588;-76
2023/08/03 12:06:10;;;;;;;3.95;1.30;;;21.70;1.00;;;;;;5031688;28;20205;-75
2023/08/03 12:08:42;;;;;;;7.70;1.75;;;;;;;;;;5015806;28;20339;-76
2023/08/03 12:11:08;;;;;;;3.83;1.20;;;21.70;1.00;;;;;;5011112;28;20697;-74
2023/08/03 12:13:33;;;;;;;5.25;1.35;;;21.80;1.00;;;;;;5032769;28;20269;-75
2023/08/03 12:15:59;;;;;;;4.50;1.42;;;21.90;1.00;;;;;;5034553;28;20184;-75
2023/08/03 12:18:25;;;;;;;4.95;1.40;;;22.00;1.00;;;;;;5030956;28;20176;-76
2023/08/03 12:20:51;;;;;;;4.93;1.08;;;21.90;99.90;;;;;;5030993;28;20256;-77
2023/08/03 12:23:18;;;;;;;3.45;1.13;;;21.90;1.00;;;;;;5030905;28;20731;-77
2023/08/03 12:25:44;;;;;;;4.50;1.20;;;22.10;1.00;;;;;;5031076;28;20726;-77
2023/08/03 12:28:10;;;;;;;5.70;1.38;;;22.20;1.00;;;;;;5031230;28;20170;-77
2023/08/03 12:30:36;;;;;;;2.72;1.20;;;22.20;99.90;;;;;;5039271;28;20174;-83
2023/08/03 12:33:02;;;;;;;7.10;1.38;;;22.20;99.90;;;;;;5042312;28;20201;-77
2023/08/03 12:35:27;;;;;;;4.30;1.10;;;22.10;1.00;;;;;;5040104;28;20174;-83
2023/08/03 12:37:53;;;;;;;4.03;1.63;;;22.00;99.90;;;;;;5030713;28;20437;-75
2023/08/03 12:40:19;;;;;;;4.35;1.15;;;21.60;1.00;;;;;;5030814;28;20229;-80
2023/08/03 12:42:44;;;;;;;2.33;1.05;;;21.40;1.00;;;;;;5030668;28;20261;-79
2023/08/03 12:45:10;;;;;;;5.30;1.35;;;21.30;99.90;;;;;;5031295;28;20210;-80
2023/08/03 12:47:37;;;;;;;3.08;1.23;;;21.30;99.90;;;;;;5030583;28;20671;-79
2023/08/03 12:50:04;;;;;;;4.88;1.63;;;21.20;1.00;;;;;;5030517;28;20220;-78